Terminal Aerodrome Forecast
Issued by NWS Sterling, VA

Home | Current Version | Previous Version | Text Only | Print | Product List | Glossary On
Versions: 1 2 3 4 5 6 7 8 9 10 11 12 13 14 15 16 17 18 19
000
FTUS41 KLWX 080535
TAFMRB
TAF
KMRB 080535Z 0806/0906 21004KT P6SM BKN100
     FM081300 22004KT P6SM -SHRA BKN070
     FM081600 23006KT P6SM -SHRA VCTS BKN040CB
     FM090100 26005KT P6SM BKN040
     FM090500 26004KT 6SM BR BKN025=

USA.gov is the U.S. government's official web portal to all federal, state and local government web resources and services.